Terminal Aerodrome Forecast
Issued by NWS

Home | Current Version | Previous Version | Text Only | Print | Product List | Glossary On
Versions: 1 2 3 4 5 6 7 8 9 10 11 12 13 14 15 16 17 18 19 20 21 22 23 24 25 26
496
FTAK31 PAFA 032323
TAFAMC
TAF
PAMC 032323Z 0400/0424 14007KT P6SM -SHRA SCT020 BKN060 OVC080
      TEMPO 0400/0404 -TSRA BKN035CB BKN050 BKN100
     FM040400 22005KT P6SM -SHRA BKN035 BKN050 BKN100
     FM040600 22005KT P6SM SCT050 BKN100=

USA.gov is the U.S. government's official web portal to all federal, state and local government web resources and services.